sensor_id;sensor_type;location;lat;lon;timestamp;pressure;altitude;pressure_sealevel;temperature;humidity
24858;BME280;12935;50.782;6.074;2023-03-20T00:01:20;99862.53;;;8.55;100.00
24858;BME280;12935;50.782;6.074;2023-03-20T00:03:48;99867.56;;;8.53;100.00
24858;BME280;12935;50.782;6.074;2023-03-20T00:06:19;99875.00;;;8.56;100.00
24858;BME280;12935;50.782;6.074;2023-03-20T00:08:47;99872.94;;;8.46;100.00
24858;BME280;12935;50.782;6.074;2023-03-20T00:14:00;99881.56;;;8.52;100.00
24858;BME280;12935;50.782;6.074;2023-03-20T00:16:32;99879.53;;;8.45;100.00
24858;BME280;12935;50.782;6.074;2023-03-20T00:18:58;99875.94;;;8.37;100.00
24858;BME280;12935;50.782;6.074;2023-03-20T00:21:23;99884.63;;;8.50;100.00
24858;BME280;12935;50.782;6.074;2023-03-20T00:23:49;99892.75;;;8.43;100.00
24858;BME280;12935;50.782;6.074;2023-03-20T00:26:15;99893.22;;;8.52;100.00
24858;BME280;12935;50.782;6.074;2023-03-20T00:28:44;99895.94;;;8.49;100.00
24858;BME280;12935;50.782;6.074;2023-03-20T00:31:31;99896.13;;;8.33;100.00
24858;BME280;12935;50.782;6.074;2023-03-20T00:34:03;99896.94;;;8.37;100.00
24858;BME280;12935;50.782;6.074;2023-03-20T00:36:29;99911.13;;;8.50;100.00
24858;BME280;12935;50.782;6.074;2023-03-20T00:38:55;99900.06;;;8.39;100.00
24858;BME280;12935;50.782;6.074;2023-03-20T00:46:38;99904.56;;;8.28;100.00
24858;BME280;12935;50.782;6.074;2023-03-20T00:49:04;99901.22;;;8.38;100.00
24858;BME280;12935;50.782;6.074;2023-03-20T00:51:29;99909.38;;;8.38;100.00
24858;BME280;12935;50.782;6.074;2023-03-20T00:53:54;99902.63;;;8.28;100.00
24858;BME280;12935;50.782;6.074;2023-03-20T00:56:35;99906.91;;;8.29;100.00
24858;BME280;12935;50.782;6.074;2023-03-20T00:59:02;99904.13;;;8.26;100.00
24858;BME280;12935;50.782;6.074;2023-03-20T01:01:28;99903.66;;;8.20;100.00
24858;BME280;12935;50.782;6.074;2023-03-20T01:03:55;99901.72;;;8.21;100.00
24858;BME280;12935;50.782;6.074;2023-03-20T01:06:20;99896.44;;;8.31;100.00
24858;BME280;12935;50.782;6.074;2023-03-20T01:08:46;99895.34;;;8.36;100.00
24858;BME280;12935;50.782;6.074;2023-03-20T01:11:13;99891.53;;;8.40;100.00
24858;BME280;12935;50.782;6.074;2023-03-20T01:13:41;99890.66;;;8.33;100.00
24858;BME280;12935;50.782;6.074;2023-03-20T01:16:18;99871.34;;;8.15;100.00
24858;BME280;12935;50.782;6.074;2023-03-20T01:18:44;99871.50;;;7.99;100.00
24858;BME280;12935;50.782;6.074;2023-03-20T01:21:09;99855.69;;;8.08;100.00
24858;BME280;12935;50.782;6.074;2023-03-20T01:23:34;99857.16;;;8.02;100.00
24858;BME280;12935;50.782;6.074;2023-03-20T01:25:59;99852.41;;;7.96;100.00
24858;BME280;12935;50.782;6.074;2023-03-20T01:28:25;99839.94;;;7.95;100.00
24858;BME280;12935;50.782;6.074;2023-03-20T01:30:51;99833.19;;;8.12;100.00
24858;BME280;12935;50.782;6.074;2023-03-20T01:33:19;99833.25;;;8.19;100.00
24858;BME280;12935;50.782;6.074;2023-03-20T01:35:46;99840.66;;;8.18;100.00
24858;BME280;12935;50.782;6.074;2023-03-20T01:38:26;99842.84;;;8.09;100.00
24858;BME280;12935;50.782;6.074;2023-03-20T01:43:29;99824.84;;;7.71;100.00
24858;BME280;12935;50.782;6.074;2023-03-20T01:46:02;99840.31;;;7.67;100.00
24858;BME280;12935;50.782;6.074;2023-03-20T01:51:40;99835.66;;;7.67;100.00
24858;BME280;12935;50.782;6.074;2023-03-20T01:54:13;99838.63;;;7.59;100.00
24858;BME280;12935;50.782;6.074;2023-03-20T01:56:44;99840.41;;;7.48;100.00
24858;BME280;12935;50.782;6.074;2023-03-20T01:59:24;99856.53;;;7.37;100.00
24858;BME280;12935;50.782;6.074;2023-03-20T02:01:51;99867.34;;;7.33;100.00
24858;BME280;12935;50.782;6.074;2023-03-20T02:04:19;99860.63;;;7.27;100.00
24858;BME280;12935;50.782;6.074;2023-03-20T02:06:45;99852.47;;;7.27;100.00
24858;BME280;12935;50.782;6.074;2023-03-20T02:09:11;99841.59;;;7.27;100.00
24858;BME280;12935;50.782;6.074;2023-03-20T02:11:38;99838.16;;;7.30;100.00
24858;BME280;12935;50.782;6.074;2023-03-20T02:14:04;99843.06;;;7.21;100.00
24858;BME280;12935;50.782;6.074;2023-03-20T02:16:30;99858.59;;;7.21;100.00
24858;BME280;12935;50.782;6.074;2023-03-20T02:18:57;99862.81;;;7.18;100.00
24858;BME280;12935;50.782;6.074;2023-03-20T02:26:32;99845.13;;;7.51;100.00
24858;BME280;12935;50.782;6.074;2023-03-20T02:32:12;99854.63;;;7.37;100.00
24858;BME280;12935;50.782;6.074;2023-03-20T02:37:26;99842.88;;;7.33;100.00
24858;BME280;12935;50.782;6.074;2023-03-20T02:44:05;99843.63;;;7.08;100.00
24858;BME280;12935;50.782;6.074;2023-03-20T02:46:55;99837.78;;;7.09;100.00
24858;BME280;12935;50.782;6.074;2023-03-20T02:49:11;99829.16;;;7.26;100.00
24858;BME280;12935;50.782;6.074;2023-03-20T02:51:53;99830.25;;;7.45;100.00
24858;BME280;12935;50.782;6.074;2023-03-20T02:57:04;99806.19;;;7.47;100.00
24858;BME280;12935;50.782;6.074;2023-03-20T03:02:21;99810.56;;;7.28;100.00
24858;BME280;12935;50.782;6.074;2023-03-20T03:04:52;99828.50;;;7.10;100.00
24858;BME280;12935;50.782;6.074;2023-03-20T03:07:21;99848.28;;;6.88;100.00
24858;BME280;12935;50.782;6.074;2023-03-20T03:09:54;99848.75;;;6.71;100.00
24858;BME280;12935;50.782;6.074;2023-03-20T03:12:29;99858.31;;;6.64;100.00
24858;BME280;12935;50.782;6.074;2023-03-20T03:15:00;99861.25;;;6.75;100.00
24858;BME280;12935;50.782;6.074;2023-03-20T03:17:29;99867.84;;;6.74;100.00
24858;BME280;12935;50.782;6.074;2023-03-20T03:20:04;99872.25;;;6.63;100.00
24858;BME280;12935;50.782;6.074;2023-03-20T03:22:32;99872.47;;;6.54;100.00
24858;BME280;12935;50.782;6.074;2023-03-20T03:24:58;99888.91;;;6.42;100.00
24858;BME280;12935;50.782;6.074;2023-03-20T03:27:25;99891.19;;;6.40;100.00
24858;BME280;12935;50.782;6.074;2023-03-20T03:30:00;99886.47;;;6.37;100.00
24858;BME280;12935;50.782;6.074;2023-03-20T03:32:47;99877.88;;;6.35;100.00
24858;BME280;12935;50.782;6.074;2023-03-20T03:35:17;99890.31;;;6.36;100.00
24858;BME280;12935;50.782;6.074;2023-03-20T03:37:54;99871.81;;;6.42;100.00
24858;BME280;12935;50.782;6.074;2023-03-20T03:43:30;99859.81;;;6.62;100.00
24858;BME280;12935;50.782;6.074;2023-03-20T03:46:01;99863.47;;;6.69;100.00
24858;BME280;12935;50.782;6.074;2023-03-20T03:48:36;99853.19;;;6.59;100.00
24858;BME280;12935;50.782;6.074;2023-03-20T03:51:06;99856.31;;;6.61;100.00
24858;BME280;12935;50.782;6.074;2023-03-20T03:53:43;99856.09;;;6.51;100.00
24858;BME280;12935;50.782;6.074;2023-03-20T03:56:15;99865.03;;;6.51;100.00
24858;BME280;12935;50.782;6.074;2023-03-20T03:58:47;99852.25;;;6.52;100.00
24858;BME280;12935;50.782;6.074;2023-03-20T04:01:15;99856.25;;;6.58;100.00
24858;BME280;12935;50.782;6.074;2023-03-20T04:03:45;99858.66;;;6.82;100.00
24858;BME280;12935;50.782;6.074;2023-03-20T04:06:14;99853.81;;;6.72;100.00
24858;BME280;12935;50.782;6.074;2023-03-20T04:08:40;99851.81;;;6.88;100.00
24858;BME280;12935;50.782;6.074;2023-03-20T04:11:11;99845.41;;;7.00;100.00
24858;BME280;12935;50.782;6.074;2023-03-20T04:13:38;99837.44;;;7.11;100.00
24858;BME280;12935;50.782;6.074;2023-03-20T04:16:04;99835.03;;;7.06;100.00
24858;BME280;12935;50.782;6.074;2023-03-20T04:18:29;99826.09;;;7.05;100.00
24858;BME280;12935;50.782;6.074;2023-03-20T04:20:54;99821.41;;;6.83;100.00
24858;BME280;12935;50.782;6.074;2023-03-20T04:23:20;99813.44;;;6.71;100.00
24858;BME280;12935;50.782;6.074;2023-03-20T04:25:45;99813.66;;;6.62;100.00
24858;BME280;12935;50.782;6.074;2023-03-20T04:28:11;99826.66;;;6.72;100.00
24858;BME280;12935;50.782;6.074;2023-03-20T04:30:40;99820.22;;;6.80;100.00
24858;BME280;12935;50.782;6.074;2023-03-20T04:33:05;99834.88;;;6.76;100.00
24858;BME280;12935;50.782;6.074;2023-03-20T04:35:31;99838.03;;;6.58;100.00
24858;BME280;12935;50.782;6.074;2023-03-20T04:37:56;99841.97;;;6.42;100.00
24858;BME280;12935;50.782;6.074;2023-03-20T04:40:21;99847.41;;;6.42;100.00
24858;BME280;12935;50.782;6.074;2023-03-20T04:42:47;99849.75;;;6.43;100.00
24858;BME280;12935;50.782;6.074;2023-03-20T04:45:12;99846.63;;;6.60;100.00
24858;BME280;12935;50.782;6.074;2023-03-20T04:47:37;99851.91;;;6.53;100.00
24858;BME280;12935;50.782;6.074;2023-03-20T04:50:04;99850.75;;;6.54;100.00
24858;BME280;12935;50.782;6.074;2023-03-20T04:52:29;99840.81;;;6.62;100.00
24858;BME280;12935;50.782;6.074;2023-03-20T04:54:55;99841.50;;;6.78;100.00
24858;BME280;12935;50.782;6.074;2023-03-20T04:57:20;99833.66;;;6.92;100.00
24858;BME280;12935;50.782;6.074;2023-03-20T04:59:45;99834.47;;;6.96;100.00
24858;BME280;12935;50.782;6.074;2023-03-20T05:02:10;99831.91;;;7.03;100.00
24858;BME280;12935;50.782;6.074;2023-03-20T05:04:40;99845.91;;;7.06;100.00
24858;BME280;12935;50.782;6.074;2023-03-20T05:07:05;99835.44;;;6.85;100.00
24858;BME280;12935;50.782;6.074;2023-03-20T05:09:30;99840.44;;;6.83;100.00
24858;BME280;12935;50.782;6.074;2023-03-20T05:11:56;99839.13;;;6.96;100.00
24858;BME280;12935;50.782;6.074;2023-03-20T05:14:21;99834.94;;;6.79;100.00
24858;BME280;12935;50.782;6.074;2023-03-20T05:16:46;99844.38;;;6.66;100.00
24858;BME280;12935;50.782;6.074;2023-03-20T05:19:12;99846.19;;;6.58;100.00
24858;BME280;12935;50.782;6.074;2023-03-20T05:21:37;99840.69;;;6.74;100.00
24858;BME280;12935;50.782;6.074;2023-03-20T05:24:02;99841.94;;;6.80;100.00
24858;BME280;12935;50.782;6.074;2023-03-20T05:26:28;99836.81;;;6.75;100.00
24858;BME280;12935;50.782;6.074;2023-03-20T05:28:53;99831.50;;;6.82;100.00
24858;BME280;12935;50.782;6.074;2023-03-20T05:31:18;99828.59;;;6.94;100.00
24858;BME280;12935;50.782;6.074;2023-03-20T05:33:44;99830.25;;;6.76;100.00
24858;BME280;12935;50.782;6.074;2023-03-20T05:36:09;99825.53;;;6.96;100.00
24858;BME280;12935;50.782;6.074;2023-03-20T05:38:35;99818.31;;;7.03;100.00
24858;BME280;12935;50.782;6.074;2023-03-20T05:41:00;99815.09;;;6.98;100.00
24858;BME280;12935;50.782;6.074;2023-03-20T05:43:26;99821.38;;;7.02;100.00
24858;BME280;12935;50.782;6.074;2023-03-20T05:45:54;99826.50;;;6.84;100.00
24858;BME280;12935;50.782;6.074;2023-03-20T05:48:20;99821.41;;;6.83;100.00
24858;BME280;12935;50.782;6.074;2023-03-20T05:50:46;99832.47;;;6.93;100.00
24858;BME280;12935;50.782;6.074;2023-03-20T05:53:11;99824.81;;;6.76;100.00
24858;BME280;12935;50.782;6.074;2023-03-20T05:55:36;99829.22;;;6.84;100.00
24858;BME280;12935;50.782;6.074;2023-03-20T05:58:01;99842.28;;;6.79;100.00
24858;BME280;12935;50.782;6.074;2023-03-20T06:00:27;99842.59;;;6.74;100.00
24858;BME280;12935;50.782;6.074;2023-03-20T06:02:52;99847.63;;;6.94;100.00
24858;BME280;12935;50.782;6.074;2023-03-20T06:05:17;99845.31;;;6.74;100.00
24858;BME280;12935;50.782;6.074;2023-03-20T06:07:43;99833.00;;;6.80;100.00
24858;BME280;12935;50.782;6.074;2023-03-20T06:10:08;99825.94;;;6.75;100.00
24858;BME280;12935;50.782;6.074;2023-03-20T06:12:34;99832.72;;;6.85;100.00
24858;BME280;12935;50.782;6.074;2023-03-20T06:15:00;99832.72;;;6.85;100.00
24858;BME280;12935;50.782;6.074;2023-03-20T06:17:25;99837.25;;;7.00;100.00
24858;BME280;12935;50.782;6.074;2023-03-20T06:19:50;99832.75;;;7.08;100.00
24858;BME280;12935;50.782;6.074;2023-03-20T06:22:16;99833.00;;;7.22;100.00
24858;BME280;12935;50.782;6.074;2023-03-20T06:24:41;99834.06;;;7.17;100.00
24858;BME280;12935;50.782;6.074;2023-03-20T06:27:07;99833.94;;;7.10;100.00
24858;BME280;12935;50.782;6.074;2023-03-20T06:29:32;99826.94;;;7.09;100.00
24858;BME280;12935;50.782;6.074;2023-03-20T06:31:57;99826.78;;;7.21;100.00
24858;BME280;12935;50.782;6.074;2023-03-20T06:34:23;99826.63;;;7.14;100.00
24858;BME280;12935;50.782;6.074;2023-03-20T06:36:48;99834.19;;;7.01;100.00
24858;BME280;12935;50.782;6.074;2023-03-20T06:39:13;99826.75;;;6.98;100.00
24858;BME280;12935;50.782;6.074;2023-03-20T06:41:39;99823.72;;;6.81;100.00
24858;BME280;12935;50.782;6.074;2023-03-20T06:44:04;99836.41;;;6.96;100.00
24858;BME280;12935;50.782;6.074;2023-03-20T06:46:29;99830.63;;;6.78;100.00
24858;BME280;12935;50.782;6.074;2023-03-20T06:48:55;99839.38;;;6.68;100.00
24858;BME280;12935;50.782;6.074;2023-03-20T06:51:20;99852.00;;;6.80;100.00
24858;BME280;12935;50.782;6.074;2023-03-20T06:53:45;99852.31;;;6.75;100.00
24858;BME280;12935;50.782;6.074;2023-03-20T06:56:11;99854.97;;;6.71;100.00
24858;BME280;12935;50.782;6.074;2023-03-20T06:58:36;99865.56;;;6.99;100.00
24858;BME280;12935;50.782;6.074;2023-03-20T07:01:08;99864.50;;;7.03;100.00
24858;BME280;12935;50.782;6.074;2023-03-20T07:03:33;99876.31;;;6.92;100.00
24858;BME280;12935;50.782;6.074;2023-03-20T07:05:59;99875.72;;;7.02;100.00
24858;BME280;12935;50.782;6.074;2023-03-20T07:08:25;99872.50;;;6.96;100.00
24858;BME280;12935;50.782;6.074;2023-03-20T07:10:50;99869.06;;;6.99;100.00
24858;BME280;12935;50.782;6.074;2023-03-20T07:13:15;99867.63;;;7.28;100.00
24858;BME280;12935;50.782;6.074;2023-03-20T07:15:41;99868.78;;;7.50;100.00
24858;BME280;12935;50.782;6.074;2023-03-20T07:18:06;99868.72;;;7.47;100.00
24858;BME280;12935;50.782;6.074;2023-03-20T07:20:32;99877.38;;;7.52;100.00
24858;BME280;12935;50.782;6.074;2023-03-20T07:22:57;99879.19;;;7.67;100.00
24858;BME280;12935;50.782;6.074;2023-03-20T07:25:23;99882.69;;;7.68;100.00
24858;BME280;12935;50.782;6.074;2023-03-20T07:27:48;99895.56;;;7.71;100.00
24858;BME280;12935;50.782;6.074;2023-03-20T07:30:16;99902.16;;;7.70;100.00
24858;BME280;12935;50.782;6.074;2023-03-20T07:32:42;99901.13;;;7.55;100.00
24858;BME280;12935;50.782;6.074;2023-03-20T07:35:07;99904.09;;;7.69;100.00
24858;BME280;12935;50.782;6.074;2023-03-20T07:37:33;99903.72;;;7.97;100.00
24858;BME280;12935;50.782;6.074;2023-03-20T07:39:58;99899.16;;;7.56;100.00
24858;BME280;12935;50.782;6.074;2023-03-20T07:42:24;99903.06;;;7.55;100.00
24858;BME280;12935;50.782;6.074;2023-03-20T07:44:49;99903.88;;;7.82;100.00
24858;BME280;12935;50.782;6.074;2023-03-20T07:47:14;99906.00;;;7.69;100.00
24858;BME280;12935;50.782;6.074;2023-03-20T07:49:40;99906.03;;;7.72;100.00
24858;BME280;12935;50.782;6.074;2023-03-20T07:52:05;99907.19;;;7.71;100.00
24858;BME280;12935;50.782;6.074;2023-03-20T07:54:31;99904.69;;;7.59;100.00
24858;BME280;12935;50.782;6.074;2023-03-20T07:56:56;99912.41;;;7.34;100.00
24858;BME280;12935;50.782;6.074;2023-03-20T07:59:21;99914.66;;;7.52;100.00
24858;BME280;12935;50.782;6.074;2023-03-20T08:01:46;99914.22;;;7.72;100.00
24858;BME280;12935;50.782;6.074;2023-03-20T08:04:12;99918.75;;;7.65;100.00
24858;BME280;12935;50.782;6.074;2023-03-20T08:06:37;99923.22;;;7.77;100.00
24858;BME280;12935;50.782;6.074;2023-03-20T08:09:05;99917.94;;;7.87;100.00
24858;BME280;12935;50.782;6.074;2023-03-20T08:11:30;99923.09;;;7.92;100.00
24858;BME280;12935;50.782;6.074;2023-03-20T08:13:57;99920.84;;;7.98;100.00
24858;BME280;12935;50.782;6.074;2023-03-20T08:16:22;99920.47;;;7.99;100.00
24858;BME280;12935;50.782;6.074;2023-03-20T08:18:47;99925.00;;;7.92;100.00
24858;BME280;12935;50.782;6.074;2023-03-20T08:21:14;99919.34;;;8.00;100.00
24858;BME280;12935;50.782;6.074;2023-03-20T08:23:40;99919.50;;;7.88;100.00
24858;BME280;12935;50.782;6.074;2023-03-20T08:26:05;99915.19;;;8.10;100.00
24858;BME280;12935;50.782;6.074;2023-03-20T08:28:31;99917.44;;;8.04;100.00
24858;BME280;12935;50.782;6.074;2023-03-20T08:30:56;99918.97;;;8.28;100.00
24858;BME280;12935;50.782;6.074;2023-03-20T08:33:21;99921.78;;;8.35;100.00
24858;BME280;12935;50.782;6.074;2023-03-20T08:35:57;99924.16;;;7.88;100.00
24858;BME280;12935;50.782;6.074;2023-03-20T08:38:22;99920.31;;;7.89;100.00
24858;BME280;12935;50.782;6.074;2023-03-20T08:40:48;99930.31;;;8.07;100.00
24858;BME280;12935;50.782;6.074;2023-03-20T08:43:13;99935.81;;;7.85;100.00
24858;BME280;12935;50.782;6.074;2023-03-20T08:45:38;99933.75;;;8.04;100.00
24858;BME280;12935;50.782;6.074;2023-03-20T08:48:04;99949.28;;;8.00;100.00
24858;BME280;12935;50.782;6.074;2023-03-20T08:50:29;99948.63;;;7.84;100.00
24858;BME280;12935;50.782;6.074;2023-03-20T08:52:55;99935.50;;;7.67;100.00
24858;BME280;12935;50.782;6.074;2023-03-20T08:55:20;99939.72;;;7.87;100.00
24858;BME280;12935;50.782;6.074;2023-03-20T08:57:46;99935.25;;;7.98;100.00
24858;BME280;12935;50.782;6.074;2023-03-20T09:00:13;99942.72;;;8.05;100.00
24858;BME280;12935;50.782;6.074;2023-03-20T09:02:40;99940.47;;;8.10;100.00
24858;BME280;12935;50.782;6.074;2023-03-20T09:05:06;99953.03;;;8.19;100.00
24858;BME280;12935;50.782;6.074;2023-03-20T09:07:31;99944.19;;;7.99;100.00
24858;BME280;12935;50.782;6.074;2023-03-20T09:09:57;99943.81;;;8.00;100.00
24858;BME280;12935;50.782;6.074;2023-03-20T09:12:22;99948.41;;;7.96;100.00
24858;BME280;12935;50.782;6.074;2023-03-20T09:14:48;99955.94;;;8.06;100.00
24858;BME280;12935;50.782;6.074;2023-03-20T09:17:13;99958.22;;;8.01;100.00
24858;BME280;12935;50.782;6.074;2023-03-20T09:19:38;99957.09;;;8.05;100.00
24858;BME280;12935;50.782;6.074;2023-03-20T09:22:06;99943.63;;;7.90;100.00
24858;BME280;12935;50.782;6.074;2023-03-20T09:24:32;99950.22;;;8.12;100.00
24858;BME280;12935;50.782;6.074;2023-03-20T09:26:58;99949.53;;;8.18;100.00
24858;BME280;12935;50.782;6.074;2023-03-20T09:29:25;99945.44;;;8.05;100.00
24858;BME280;12935;50.782;6.074;2023-03-20T09:31:52;99939.06;;;8.20;100.00
24858;BME280;12935;50.782;6.074;2023-03-20T09:34:17;99943.50;;;8.05;100.00
24858;BME280;12935;50.782;6.074;2023-03-20T09:36:42;99944.34;;;8.09;100.00
24858;BME280;12935;50.782;6.074;2023-03-20T09:39:08;99947.09;;;8.36;100.00
24858;BME280;12935;50.782;6.074;2023-03-20T09:41:33;99946.34;;;8.39;100.00
24858;BME280;12935;50.782;6.074;2023-03-20T09:44:07;99945.03;;;8.56;100.00
24858;BME280;12935;50.782;6.074;2023-03-20T09:49:29;99950.84;;;8.84;100.00
24858;BME280;12935;50.782;6.074;2023-03-20T09:54:48;99953.69;;;8.35;100.00
24858;BME280;12935;50.782;6.074;2023-03-20T09:57:26;99953.44;;;8.43;100.00
24858;BME280;12935;50.782;6.074;2023-03-20T10:00:00;99957.59;;;8.34;100.00
24858;BME280;12935;50.782;6.074;2023-03-20T10:02:37;99951.31;;;8.60;100.00
24858;BME280;12935;50.782;6.074;2023-03-20T10:05:16;99948.28;;;8.98;100.00
24858;BME280;12935;50.782;6.074;2023-03-20T10:07:43;99948.25;;;8.95;100.00
24858;BME280;12935;50.782;6.074;2023-03-20T10:10:12;99950.81;;;8.81;100.00
24858;BME280;12935;50.782;6.074;2023-03-20T10:12:45;99953.88;;;8.75;100.00
24858;BME280;12935;50.782;6.074;2023-03-20T10:15:19;99954.31;;;8.81;100.00
24858;BME280;12935;50.782;6.074;2023-03-20T10:18:04;99943.50;;;8.88;100.00
24858;BME280;12935;50.782;6.074;2023-03-20T10:20:45;99968.50;;;8.37;100.00
24858;BME280;12935;50.782;6.074;2023-03-20T10:23:37;99954.34;;;8.02;100.00
24858;BME280;12935;50.782;6.074;2023-03-20T10:26:11;99950.69;;;8.17;100.00
24858;BME280;12935;50.782;6.074;2023-03-20T10:29:02;99957.59;;;8.11;100.00
24858;BME280;12935;50.782;6.074;2023-03-20T10:42:20;99961.19;;;8.19;100.00
24858;BME280;12935;50.782;6.074;2023-03-20T10:47:27;99947.00;;;8.06;100.00
24858;BME280;12935;50.782;6.074;2023-03-20T10:49:57;99945.84;;;8.07;100.00
24858;BME280;12935;50.782;6.074;2023-03-20T10:52:27;99949.94;;;7.94;100.00
24858;BME280;12935;50.782;6.074;2023-03-20T10:55:05;99949.28;;;8.00;100.00
24858;BME280;12935;50.782;6.074;2023-03-20T10:57:38;99949.09;;;7.90;100.00
24858;BME280;12935;50.782;6.074;2023-03-20T11:00:12;99946.59;;;8.04;100.00
24858;BME280;12935;50.782;6.074;2023-03-20T11:02:38;99952.59;;;7.90;100.00
24858;BME280;12935;50.782;6.074;2023-03-20T11:05:20;99958.81;;;7.91;100.00
24858;BME280;12935;50.782;6.074;2023-03-20T11:07:48;99950.50;;;7.80;100.00
24858;BME280;12935;50.782;6.074;2023-03-20T11:10:15;99947.13;;;7.87;100.00
24858;BME280;12935;50.782;6.074;2023-03-20T11:12:45;99948.13;;;7.79;100.00
24858;BME280;12935;50.782;6.074;2023-03-20T11:17:38;99932.94;;;8.27;100.00
24858;BME280;12935;50.782;6.074;2023-03-20T11:20:05;99937.81;;;8.14;100.00
24858;BME280;12935;50.782;6.074;2023-03-20T11:22:31;99933.47;;;8.09;100.00
24858;BME280;12935;50.782;6.074;2023-03-20T11:24:58;99930.06;;;8.16;100.00
24858;BME280;12935;50.782;6.074;2023-03-20T11:27:27;99930.19;;;8.50;100.00
24858;BME280;12935;50.782;6.074;2023-03-20T11:29:54;99929.72;;;8.74;100.00
24858;BME280;12935;50.782;6.074;2023-03-20T11:32:30;99928.69;;;8.56;100.00
24858;BME280;12935;50.782;6.074;2023-03-20T11:35:08;99916.50;;;8.46;100.00
24858;BME280;12935;50.782;6.074;2023-03-20T11:37:35;99911.56;;;8.29;100.00
24858;BME280;12935;50.782;6.074;2023-03-20T11:40:29;99905.75;;;8.57;100.00
24858;BME280;12935;50.782;6.074;2023-03-20T11:45:25;99892.56;;;8.92;100.00
24858;BME280;12935;50.782;6.074;2023-03-20T11:47:53;99889.47;;;8.97;100.00
24858;BME280;12935;50.782;6.074;2023-03-20T11:50:33;99883.19;;;8.90;100.00
24858;BME280;12935;50.782;6.074;2023-03-20T11:53:04;99882.09;;;8.98;100.00
24858;BME280;12935;50.782;6.074;2023-03-20T11:55:41;99875.25;;;9.11;100.00
24858;BME280;12935;50.782;6.074;2023-03-20T11:58:13;99871.59;;;8.96;100.00
24858;BME280;12935;50.782;6.074;2023-03-20T12:00:41;99874.69;;;9.35;100.00
24858;BME280;12935;50.782;6.074;2023-03-20T12:06:19;99867.53;;;9.68;100.00
24858;BME280;12935;50.782;6.074;2023-03-20T12:08:49;99864.28;;;10.03;100.00
24858;BME280;12935;50.782;6.074;2023-03-20T12:11:22;99860.59;;;10.36;100.00
24858;BME280;12935;50.782;6.074;2023-03-20T12:13:50;99861.50;;;10.65;100.00
24858;BME280;12935;50.782;6.074;2023-03-20T12:16:20;99853.75;;;10.84;100.00
24858;BME280;12935;50.782;6.074;2023-03-20T12:19:00;99856.53;;;10.99;100.00
24858;BME280;12935;50.782;6.074;2023-03-20T12:21:47;99852.22;;;11.05;99.90
24858;BME280;12935;50.782;6.074;2023-03-20T12:24:44;99839.94;;;10.38;100.00
24858;BME280;12935;50.782;6.074;2023-03-20T12:29:51;99832.94;;;10.55;100.00
24858;BME280;12935;50.782;6.074;2023-03-20T12:37:31;99833.06;;;10.83;100.00
24858;BME280;12935;50.782;6.074;2023-03-20T12:39:59;99811.09;;;10.48;100.00
24858;BME280;12935;50.782;6.074;2023-03-20T12:44:57;99822.00;;;10.44;99.92
24858;BME280;12935;50.782;6.074;2023-03-20T12:56:05;99806.13;;;11.07;93.78
24858;BME280;12935;50.782;6.074;2023-03-20T13:01:31;99802.25;;;11.43;90.99
24858;BME280;12935;50.782;6.074;2023-03-20T13:07:00;99812.41;;;11.39;92.78
24858;BME280;12935;50.782;6.074;2023-03-20T13:15:09;99815.88;;;10.79;92.86
24858;BME280;12935;50.782;6.074;2023-03-20T13:17:45;99809.22;;;10.87;92.15
24858;BME280;12935;50.782;6.074;2023-03-20T13:20:30;99815.91;;;10.97;92.28
24858;BME280;12935;50.782;6.074;2023-03-20T13:25:51;99814.72;;;11.05;90.82
24858;BME280;12935;50.782;6.074;2023-03-20T13:34:31;99813.53;;;10.92;94.49
24858;BME280;12935;50.782;6.074;2023-03-20T13:37:10;99817.81;;;10.89;95.97
24858;BME280;12935;50.782;6.074;2023-03-20T13:39:42;99825.25;;;10.82;90.54
24858;BME280;12935;50.782;6.074;2023-03-20T13:42:13;99809.59;;;10.68;91.81
24858;BME280;12935;50.782;6.074;2023-03-20T13:44:41;99799.47;;;10.90;91.89
24858;BME280;12935;50.782;6.074;2023-03-20T13:47:21;99793.25;;;11.11;92.32
24858;BME280;12935;50.782;6.074;2023-03-20T13:52:44;99801.75;;;10.63;95.55
24858;BME280;12935;50.782;6.074;2023-03-20T14:00:53;99792.72;;;10.45;94.89
24858;BME280;12935;50.782;6.074;2023-03-20T14:03:31;99797.72;;;10.22;97.34
24858;BME280;12935;50.782;6.074;2023-03-20T14:05:57;99793.31;;;10.10;97.57
24858;BME280;12935;50.782;6.074;2023-03-20T14:10:55;99786.56;;;10.69;94.99
24858;BME280;12935;50.782;6.074;2023-03-20T14:13:29;99786.13;;;10.49;94.96
24858;BME280;12935;50.782;6.074;2023-03-20T14:15:56;99787.28;;;10.52;95.01
24858;BME280;12935;50.782;6.074;2023-03-20T14:18:25;99785.69;;;10.44;96.28
24858;BME280;12935;50.782;6.074;2023-03-20T14:20:53;99771.31;;;10.61;94.10
24858;BME280;12935;50.782;6.074;2023-03-20T14:23:38;99768.13;;;10.45;94.79
24858;BME280;12935;50.782;6.074;2023-03-20T14:26:08;99764.66;;;10.62;95.56
24858;BME280;12935;50.782;6.074;2023-03-20T14:29:41;99761.13;;;10.51;95.33
24858;BME280;12935;50.782;6.074;2023-03-20T14:31:42;99760.44;;;10.93;94.07
24858;BME280;12935;50.782;6.074;2023-03-20T14:36:45;99761.22;;;11.18;92.62
24858;BME280;12935;50.782;6.074;2023-03-20T14:47:44;99760.00;;;10.77;90.04
24858;BME280;12935;50.782;6.074;2023-03-20T14:50:20;99749.88;;;10.70;90.13
24858;BME280;12935;50.782;6.074;2023-03-20T14:53:13;99756.06;;;10.57;91.31
24858;BME280;12935;50.782;6.074;2023-03-20T14:55:49;99748.31;;;10.83;89.50
24858;BME280;12935;50.782;6.074;2023-03-20T15:03:49;99744.41;;;11.09;88.35
24858;BME280;12935;50.782;6.074;2023-03-20T15:06:19;99745.97;;;10.68;87.88
24858;BME280;12935;50.782;6.074;2023-03-20T15:08:52;99740.47;;;10.71;88.83
24858;BME280;12935;50.782;6.074;2023-03-20T15:11:19;99723.69;;;10.51;90.16
24858;BME280;12935;50.782;6.074;2023-03-20T15:13:47;99734.66;;;10.80;89.80
24858;BME280;12935;50.782;6.074;2023-03-20T15:16:14;99741.66;;;10.88;89.54
24858;BME280;12935;50.782;6.074;2023-03-20T15:18:46;99742.00;;;10.58;88.86
24858;BME280;12935;50.782;6.074;2023-03-20T15:21:14;99738.13;;;10.59;91.54